createdAt,value
2019-05-26T00:04:06.636Z,1018.02
2019-05-26T00:09:07.872Z,1018.12
2019-05-26T00:14:06.389Z,1018.13
2019-05-26T00:19:07.341Z,1017.9
2019-05-26T00:24:06.850Z,1017.92
2019-05-26T00:28:06.168Z,1017.91
2019-05-26T00:33:06.531Z,1017.87
2019-05-26T00:38:06.419Z,1017.69
2019-05-26T00:43:06.446Z,1017.79
2019-05-26T00:48:06.078Z,1017.74
2019-05-26T00:53:06.543Z,1017.71
2019-05-26T00:58:06.513Z,1017.72
2019-05-26T01:03:09.988Z,1017.73
2019-05-26T01:07:11.140Z,1017.66
2019-05-26T01:12:07.133Z,1017.84
2019-05-26T01:17:07.054Z,1017.77
2019-05-26T01:22:05.980Z,1017.78
2019-05-26T01:27:06.587Z,1017.73
2019-05-26T01:32:06.804Z,1017.68
2019-05-26T01:37:06.396Z,1017.71
2019-05-26T01:41:06.388Z,1017.78
2019-05-26T01:46:07.325Z,1017.77
2019-05-26T01:51:05.883Z,1017.69
2019-05-26T01:56:06.666Z,1017.71
2019-05-26T02:01:06.477Z,1017.7
2019-05-26T02:06:07.539Z,1017.67
2019-05-26T02:11:06.658Z,1017.69
2019-05-26T02:15:08.824Z,1017.65
2019-05-26T02:20:06.627Z,1017.6
2019-05-26T02:25:07.485Z,1017.54
2019-05-26T02:30:07.482Z,1017.54
2019-05-26T02:35:06.833Z,1017.49
2019-05-26T02:40:06.970Z,1017.55
2019-05-26T02:45:08.215Z,1017.52
2019-05-26T02:50:06.126Z,1017.54
2019-05-26T02:54:06.441Z,1017.5
2019-05-26T02:59:07.049Z,1017.55
2019-05-26T03:04:07.306Z,1017.47
2019-05-26T03:09:21.547Z,1017.47
2019-05-26T03:14:06.745Z,1017.48
2019-05-26T03:19:06.097Z,1017.49
2019-05-26T03:24:07.105Z,1017.5
2019-05-26T03:29:06.693Z,1017.46
2019-05-26T03:34:06.646Z,1017.44
2019-05-26T03:38:06.699Z,1017.48
2019-05-26T03:43:06.112Z,1017.48
2019-05-26T03:48:06.664Z,1017.55
2019-05-26T03:53:06.784Z,1017.62
2019-05-26T03:58:07.092Z,1017.66
2019-05-26T04:03:06.752Z,1017.61
2019-05-26T04:08:06.108Z,1017.53
2019-05-26T04:13:07.671Z,1017.51
2019-05-26T04:17:07.061Z,1017.43
2019-05-26T04:22:07.331Z,1017.4
2019-05-26T04:27:06.962Z,1017.43
2019-05-26T04:32:05.893Z,1017.46
2019-05-26T04:37:07.157Z,1017.43
2019-05-26T04:42:06.791Z,1017.34
2019-05-26T04:47:08.936Z,1017.39
2019-05-26T04:51:07.228Z,1017.32
2019-05-26T04:56:07.161Z,1017.33
2019-05-26T05:01:06.782Z,1017.34
2019-05-26T05:06:07.066Z,1017.28
2019-05-26T05:11:06.693Z,1017.23
2019-05-26T05:16:06.885Z,1017.15
2019-05-26T05:21:06.273Z,1017.12
2019-05-26T05:25:16.066Z,1017.04
2019-05-26T05:30:08.604Z,1017.06
2019-05-26T05:31:06.605Z,1017.06
2019-05-26T05:35:06.901Z,1017.05
2019-05-26T05:40:06.980Z,1017.06
2019-05-26T05:45:09.225Z,1016.93
2019-05-26T05:50:06.416Z,1016.94
2019-05-26T05:55:06.418Z,1016.88
2019-05-26T06:00:08.707Z,1016.86
2019-05-26T06:04:07.323Z,1016.86
2019-05-26T06:09:07.381Z,1016.87
2019-05-26T06:14:07.296Z,1016.89
2019-05-26T06:19:07.022Z,1016.88
2019-05-26T06:24:06.974Z,1016.87
2019-05-26T06:29:06.512Z,1016.74
2019-05-26T06:34:07.427Z,1016.68
2019-05-26T06:38:07.793Z,1016.7
2019-05-26T06:43:06.843Z,1016.64
2019-05-26T06:48:07.366Z,1016.65
2019-05-26T06:53:06.295Z,1016.6
2019-05-26T06:58:07.274Z,1016.55
2019-05-26T07:03:06.078Z,1016.52
2019-05-26T07:08:07.350Z,1016.53
2019-05-26T07:12:07.039Z,1016.5
2019-05-26T07:17:07.401Z,1016.41
2019-05-26T07:22:07.060Z,1016.29
2019-05-26T07:27:06.903Z,1016.42
2019-05-26T07:32:06.531Z,1016.3
2019-05-26T07:37:07.693Z,1016.39
2019-05-26T07:42:10.313Z,1016.26
2019-05-26T07:47:07.313Z,1016.34
2019-05-26T07:52:06.497Z,1016.31
2019-05-26T07:56:07.972Z,1016.15
2019-05-26T08:01:06.741Z,1016.18
2019-05-26T08:06:06.977Z,1016.09
2019-05-26T08:11:07.584Z,1016.05
2019-05-26T08:16:07.567Z,1016.06
2019-05-26T08:21:06.227Z,1016.06
2019-05-26T08:26:07.226Z,1015.99
2019-05-26T08:30:08.997Z,1015.82
2019-05-26T08:35:06.970Z,1015.71
2019-05-26T08:40:06.645Z,1015.68
2019-05-26T08:45:09.647Z,1015.68
2019-05-26T08:50:06.402Z,1015.59
2019-05-26T08:55:07.616Z,1015.39
2019-05-26T09:00:08.572Z,1015.4
2019-05-26T09:04:07.151Z,1015.31
2019-05-26T09:09:06.826Z,1015.3
2019-05-26T09:14:07.034Z,1015.4
2019-05-26T09:19:06.062Z,1015.34
2019-05-26T09:24:07.251Z,1015.25
2019-05-26T09:29:06.491Z,1015.13
2019-05-26T09:34:07.569Z,1015.11
2019-05-26T09:39:07.687Z,1015.19
2019-05-26T09:43:16.771Z,1015.14
2019-05-26T09:48:08.261Z,1015.12
2019-05-26T09:53:06.475Z,1015.06
2019-05-26T09:58:07.606Z,1014.93
2019-05-26T10:03:07.215Z,1014.86
2019-05-26T10:08:06.484Z,1014.75
2019-05-26T10:13:07.087Z,1014.71
2019-05-26T10:18:06.256Z,1014.74
2019-05-26T10:22:07.635Z,1014.64
2019-05-26T10:27:05.897Z,1014.56
2019-05-26T10:32:06.009Z,1014.53
2019-05-26T10:37:06.590Z,1014.44
2019-05-26T10:42:07.668Z,1014.39
2019-05-26T10:47:06.820Z,1014.33
2019-05-26T10:52:07.072Z,1014.32
2019-05-26T10:57:06.287Z,1014.3
2019-05-26T11:01:07.005Z,1014.28
2019-05-26T11:06:06.338Z,1014.27
2019-05-26T11:11:06.897Z,1014.24
2019-05-26T11:16:07.761Z,1014.05
2019-05-26T11:21:05.973Z,1014.05
2019-05-26T11:26:07.039Z,1014.04
2019-05-26T11:31:06.548Z,1014.13
2019-05-26T11:35:06.925Z,1013.94
2019-05-26T11:40:07.002Z,1013.9
2019-05-26T11:45:08.873Z,1013.91
2019-05-26T11:50:06.894Z,1013.74
2019-05-26T11:55:07.715Z,1013.76
2019-05-26T12:00:08.945Z,1013.7
2019-05-26T12:05:06.184Z,1013.5
2019-05-26T12:10:07.763Z,1013.39
2019-05-26T12:14:06.815Z,1013.32
2019-05-26T12:19:07.146Z,1013.48
2019-05-26T12:24:06.729Z,1013.41
2019-05-26T12:29:06.912Z,1013.36
2019-05-26T12:34:07.027Z,1013.25
2019-05-26T12:39:07.532Z,1013.26
2019-05-26T12:44:10.643Z,1013.18
2019-05-26T12:49:05.919Z,1013.21
2019-05-26T12:53:06.292Z,1013.2
2019-05-26T12:58:07.413Z,1013.15
2019-05-26T13:03:06.418Z,1012.95
2019-05-26T13:08:06.569Z,1013
2019-05-26T13:13:06.916Z,1013.04
2019-05-26T13:18:06.299Z,1013.03
2019-05-26T13:23:06.562Z,1013
2019-05-26T13:27:07.089Z,1012.99
2019-05-26T13:32:06.902Z,1012.98
2019-05-26T13:37:07.036Z,1012.72
2019-05-26T13:42:07.020Z,1012.75
2019-05-26T13:47:07.164Z,1012.81
2019-05-26T13:52:07.359Z,1012.82
2019-05-26T13:57:06.874Z,1012.79
2019-05-26T14:01:06.194Z,1012.62
2019-05-26T14:06:06.768Z,1012.73
2019-05-26T14:11:07.073Z,1012.73
2019-05-26T14:16:07.390Z,1012.66
2019-05-26T14:21:06.919Z,1012.49
2019-05-26T14:26:06.722Z,1012.48
2019-05-26T14:31:06.418Z,1012.49
2019-05-26T14:35:06.859Z,1012.39
2019-05-26T14:40:07.122Z,1012.25
2019-05-26T14:45:08.113Z,1012.33
2019-05-26T14:50:06.438Z,1012.34
2019-05-26T14:55:07.266Z,1012.24
2019-05-26T15:00:09.028Z,1012.25
2019-05-26T15:05:06.834Z,1012.17
2019-05-26T15:10:07.183Z,1012.26
2019-05-26T15:14:07.747Z,1012.15
2019-05-26T15:19:07.693Z,1012.17
2019-05-26T15:24:05.998Z,1012.09
2019-05-26T15:29:06.193Z,1012.09
2019-05-26T15:34:06.740Z,1012
2019-05-26T15:39:07.766Z,1012.06
2019-05-26T15:44:07.261Z,1012.02
2019-05-26T15:49:06.996Z,1011.89
2019-05-26T15:53:06.401Z,1011.88
2019-05-26T15:58:06.298Z,1011.88
2019-05-26T16:03:06.968Z,1011.81
2019-05-26T16:08:07.285Z,1011.8
2019-05-26T16:13:06.906Z,1011.78
2019-05-26T16:18:07.146Z,1011.72
2019-05-26T16:23:09.935Z,1011.64
2019-05-26T16:27:20.639Z,1011.71
2019-05-26T16:32:07.090Z,1011.68
2019-05-26T16:37:06.430Z,1011.67
2019-05-26T16:42:07.720Z,1011.65
2019-05-26T16:47:07.469Z,1011.61
2019-05-26T16:52:06.753Z,1011.58
2019-05-26T16:57:06.294Z,1011.59
2019-05-26T17:01:07.475Z,1011.47
2019-05-26T17:06:08.632Z,1011.46
2019-05-26T17:11:05.934Z,1011.47
2019-05-26T17:16:07.186Z,1011.53
2019-05-26T17:21:06.447Z,1011.53
2019-05-26T17:26:07.562Z,1011.5
2019-05-26T17:31:06.953Z,1011.6
2019-05-26T17:35:06.877Z,1011.58
2019-05-26T17:40:07.587Z,1011.49
2019-05-26T17:45:08.051Z,1011.54
2019-05-26T17:50:06.931Z,1011.38
2019-05-26T17:55:06.440Z,1011.36
2019-05-26T18:00:08.131Z,1011.37
2019-05-26T18:04:07.149Z,1011.28
2019-05-26T18:09:07.728Z,1011.34
2019-05-26T18:14:06.991Z,1011.34
2019-05-26T18:19:07.373Z,1011.37
2019-05-26T18:24:07.574Z,1011.38
2019-05-26T18:29:06.970Z,1011.36
2019-05-26T18:34:07.171Z,1011.41
2019-05-26T18:38:06.116Z,1011.34
2019-05-26T18:43:06.936Z,1011.3
2019-05-26T18:48:06.568Z,1011.34
2019-05-26T18:53:06.989Z,1011.34
2019-05-26T18:58:06.870Z,1011.4
2019-05-26T19:03:07.219Z,1011.39
2019-05-26T19:07:06.968Z,1011.44
2019-05-26T19:12:07.024Z,1011.44
2019-05-26T19:17:05.984Z,1011.43
2019-05-26T19:22:07.290Z,1011.46
2019-05-26T19:27:06.455Z,1011.51
2019-05-26T19:32:07.473Z,1011.52
2019-05-26T19:37:06.738Z,1011.44
2019-05-26T19:41:07.664Z,1011.42
2019-05-26T19:46:05.943Z,1011.5
2019-05-26T19:51:06.224Z,1011.47
2019-05-26T19:56:07.391Z,1011.41
2019-05-26T20:01:06.343Z,1011.34
2019-05-26T20:06:06.769Z,1011.31
2019-05-26T20:11:06.190Z,1011.27
2019-05-26T20:16:06.608Z,1011.2
2019-05-26T20:20:08.747Z,1011.16
2019-05-26T20:25:08.152Z,1011.13
2019-05-26T20:26:06.479Z,1011.13
2019-05-26T20:30:09.289Z,1011.13
2019-05-26T20:35:07.291Z,1011.14
2019-05-26T20:40:07.746Z,1011.1
2019-05-26T20:45:08.820Z,1011.09
2019-05-26T20:50:07.870Z,1011.07
2019-05-26T20:55:07.236Z,1011.03
2019-05-26T20:59:06.547Z,1011.04
2019-05-26T21:04:07.347Z,1011
2019-05-26T21:09:12.315Z,1011.02
2019-05-26T21:14:07.527Z,1011.03
2019-05-26T21:19:07.716Z,1011.06
2019-05-26T21:24:06.972Z,1011.05
2019-05-26T21:29:07.732Z,1010.96
2019-05-26T21:34:07.504Z,1010.93
2019-05-26T21:38:07.158Z,1010.94
2019-05-26T21:43:07.068Z,1010.86
2019-05-26T21:48:07.218Z,1010.91
2019-05-26T21:53:07.284Z,1010.9
2019-05-26T21:58:07.471Z,1010.89
2019-05-26T22:03:07.362Z,1010.9
2019-05-26T22:08:06.457Z,1010.78
2019-05-26T22:13:06.051Z,1010.72
2019-05-26T22:17:07.064Z,1010.66
2019-05-26T22:22:07.312Z,1010.57
2019-05-26T22:27:07.493Z,1010.58
2019-05-26T22:32:06.618Z,1010.43
2019-05-26T22:37:06.702Z,1010.53
2019-05-26T22:42:07.219Z,1010.44
2019-05-26T22:47:06.702Z,1010.42
2019-05-26T22:52:07.024Z,1010.39
2019-05-26T22:56:06.648Z,1010.4
2019-05-26T23:01:06.691Z,1010.35
2019-05-26T23:06:06.871Z,1010.33
2019-05-26T23:11:06.534Z,1010.31
2019-05-26T23:16:06.574Z,1010.34
2019-05-26T23:21:06.777Z,1010.26
2019-05-26T23:26:06.910Z,1010.27
2019-05-26T23:31:06.920Z,1010.3
2019-05-26T23:35:06.618Z,1010.26
2019-05-26T23:40:06.307Z,1010.18
2019-05-26T23:45:07.603Z,1010.13
2019-05-26T23:50:05.958Z,1010.08
2019-05-26T23:55:06.198Z,1010.14
